N3WKE Weather Reports


Display with metric or nautical units.
time (UTC)temp
F
wind
direction
speed
MPH
gust
MPH
rain 1hr
in
rain 24hr
in
rain mn
in
humidity
%
barometer
mb
20190718024626 75 260 0.0 3.0 0.00 0.69 0.69 95 1011.3
20190718023052 75 261 0.0 0.0 0.00 0.69 0.69 95 1011.5
20190718021734 75 286 0.0 0.0 0.00 0.69 0.69 95 1011.4
20190718014812 75 18 0.0 0.0 0.00 0.69 0.69 95 1011.1
20190718013220 75 18 0.0 0.0 0.00 0.69 0.69 95 1011.2
20190718011715 75 18 0.0 0.0 0.00 0.69 0.69 95 1011.0
20190718010133 75 18 0.0 0.0 0.00 0.69 0.69 95 1010.9
20190718004635 75 18 0.0 0.0 0.01 0.69 0.69 95 1010.9
20190718003004 75 18 0.0 0.0 0.02 0.69 0.69 95 1011.1
20190718001619 75 18 0.0 0.0 0.04 0.69 0.69 95 1011.4
20190718000003 74 18 0.0 0.0 0.06 0.68 0.68 95 1011.5
20190717234636 74 18 0.0 0.0 0.09 0.68 0.68 94 1011.7
20190717233149 74 256 0.0 0.0 0.09 0.67 0.67 95 1011.7
20190717231617 73 256 0.0 1.0 0.18 0.65 0.65 94 1011.5
20190717230207 73 265 4.0 10.0 0.62 0.62 0.62 93 1011.2
20190717224628 73 263 6.0 13.0 0.59 0.59 0.59 93 1011.0
20190717223117 74 234 7.0 19.0 0.57 0.57 0.57 91 1011.8
20190717221526 76 272 11.0 24.0 0.47 0.47 0.47 87 1012.3
20190717220127 86 308 12.0 32.0 0.00 0.00 0.00 64 1010.9
20190717214646 93 247 6.0 11.0 0.00 0.00 0.00 56 1009.4
20190717213108 93 236 3.0 14.0 0.00 0.00 0.00 56 1009.4
20190717211627 94 254 5.0 10.0 0.00 0.00 0.00 57 1009.6
20190717210145 95 236 6.0 14.0 0.00 0.00 0.00 53 1009.6
20190717204628 95 231 6.0 16.0 0.00 0.00 0.00 55 1009.7
20190717203215 94 132 3.0 12.0 0.00 0.00 0.00 54 1009.9
20190717201708 95 169 5.0 12.0 0.00 0.00 0.00 54 1010.0
20190717200132 95 164 5.0 14.0 0.00 0.00 0.00 50 1010.2
20190717194701 95 148 7.0 12.0 0.00 0.00 0.00 49 1010.4
20190717193109 95 251 2.0 11.0 0.00 0.00 0.00 51 1010.9
20190717191653 96 180 2.0 7.0 0.00 0.00 0.00 51 1011.0
20190717190111 97 236 6.0 12.0 0.00 0.00 0.00 47 1011.1
20190717184606 96 221 5.0 13.0 0.00 0.00 0.00 46 1011.2
20190717183014 97 218 4.0 11.0 0.00 0.00 0.00 45 1011.6
20190717181656 97 247 4.0 11.0 0.00 0.00 0.00 45 1011.9
20190717180151 96 192 3.0 10.0 0.00 0.00 0.00 48 1012.1
20190717174618 95 236 4.0 12.0 0.00 0.00 0.00 46 1012.5
20190717173051 95 306 3.0 8.0 0.00 0.00 0.00 48 1012.7
20190717171635 95 240 3.0 12.0 0.00 0.00 0.00 49 1012.6
20190717170034 95 234 6.0 12.0 0.00 0.00 0.00 47 1013.0
20190717164719 94 231 2.0 12.0 0.00 0.00 0.00 48 1013.1
20190717163130 94 308 5.0 12.0 0.00 0.00 0.00 50 1013.3
20190717163003 94 303 4.0 12.0 0.00 0.00 0.00 50 1013.4
20190717161614 94 308 2.0 9.0 0.00 0.00 0.00 51 1013.4
20190717160156 93 308 4.0 10.0 0.00 0.00 0.00 54 1013.6
20190717154753 92 316 4.0 13.0 0.00 0.00 0.00 58 1013.8
20190717153149 91 267 5.0 11.0 0.00 0.00 0.00 57 1014.0
20190717151717 91 263 4.0 10.0 0.00 0.00 0.00 63 1014.1
20190717150143 90 257 4.0 9.0 0.00 0.00 0.00 65 1014.0
20190717144545 89 225 4.0 10.0 0.00 0.00 0.00 69 1014.1
20190717143013 88 258 5.0 8.0 0.00 0.00 0.00 71 1014.2
20190717141626 87 234 4.0 8.0 0.00 0.00 0.00 73 1014.3
20190717140201 86 265 4.0 9.0 0.00 0.00 0.00 74 1014.4
20190717134609 85 268 3.0 8.0 0.00 0.00 0.00 78 1014.3
20190717133122 84 275 4.0 8.0 0.00 0.00 0.00 79 1014.5
20190717131555 83 263 4.0 9.0 0.00 0.00 0.00 80 1014.6
20190717130149 82 254 5.0 9.0 0.00 0.00 0.00 81 1014.6
20190717124613 81 257 6.0 10.0 0.00 0.00 0.00 82 1014.6
20190717123015 81 250 4.0 8.0 0.00 0.00 0.00 84 1014.5
20190717121625 80 259 1.0 7.0 0.00 0.00 0.00 84 1014.5
20190717120104 79 311 2.0 5.0 0.00 0.00 0.00 85 1014.5
20190717114606 78 252 2.0 4.0 0.00 0.00 0.00 86 1014.4
20190717113049 78 257 2.0 5.0 0.00 0.00 0.00 86 1014.3
20190717111626 77 265 2.0 4.0 0.00 0.00 0.00 86 1014.4
20190717110127 77 261 2.0 5.0 0.00 0.00 0.00 86 1014.4
20190717104700 77 271 3.0 8.0 0.00 0.00 0.00 86 1014.4
20190717101625 77 271 4.0 7.0 0.00 0.00 0.00 87 1014.4
20190717100040 77 252 0.0 3.0 0.00 0.00 0.00 87 1014.3
20190717094638 77 263 0.0 0.0 0.00 0.00 0.00 87 1014.3
20190717093204 78 263 0.0 3.0 0.00 0.00 0.00 86 1014.4
20190717091655 78 258 2.0 6.0 0.00 0.00 0.00 86 1014.5
20190717090145 78 255 1.0 4.0 0.00 0.00 0.00 85 1014.4
20190717084700 78 238 1.0 5.0 0.00 0.00 0.00 85 1014.3
20190717083226 79 246 0.0 2.0 0.00 0.00 0.00 85 1014.2
20190717081618 79 247 1.0 3.0 0.00 0.00 0.00 86 1014.0
20190717080151 79 242 0.0 2.0 0.00 0.00 0.00 86 1014.1
20190717074650 79 147 0.0 4.0 0.00 0.00 0.00 86 1014.2
20190717073038 79 268 0.0 0.0 0.00 0.00 0.00 86 1014.1
20190717071707 79 268 0.0 0.0 0.00 0.00 0.00 86 1014.2
20190717070003 79 268 1.0 3.0 0.00 0.00 0.00 86 1014.5
20190717064612 79 269 1.0 4.0 0.00 0.00 0.00 86 1014.7
20190717063007 79 249 0.0 3.0 0.00 0.00 0.00 86 1014.7
20190717061813 79 244 0.0 3.0 0.00 0.00 0.00 85 1014.8
20190717060234 79 280 1.0 4.0 0.00 0.00 0.00 85 1015.1
20190717054633 80 265 2.0 4.0 0.00 0.00 0.00 85 1015.1
20190717053007 80 267 1.0 4.0 0.00 0.00 0.00 85 1015.3
20190717051750 80 275 3.0 6.0 0.00 0.00 0.00 84 1015.3
20190717050207 80 244 4.0 8.0 0.00 0.00 0.00 83 1015.4
20190717044617 80 250 3.0 7.0 0.00 0.00 0.00 84 1015.5
20190717043055 80 263 3.0 6.0 0.00 0.00 0.00 83 1015.6
20190717041610 81 261 3.0 6.0 0.00 0.00 0.00 82 1015.7
20190717040217 81 242 2.0 6.0 0.00 0.00 0.00 80 1015.7
20190717034704 82 246 0.0 3.0 0.00 0.00 0.00 80 1015.8
20190717033216 82 265 0.0 4.0 0.00 0.00 0.00 79 1015.9
20190717031529 82 226 3.0 7.0 0.00 0.00 0.00 77 1016.0
20190717030151 82 265 1.0 4.0 0.00 0.00 0.00 74 1016.1